Time;durP1;ratioP1;P1;durP2;ratioP2;P2;SDS_P1;SDS_P2;PMS_P1;PMS_P2;Temp;Humidity;BMP_temperature;BMP_pressure;BME280_temperature;BME280_humidity;BME280_pressure;Samples;Min_cycle;Max_cycle;Signal;HPM_P1;HPM_P2
2024/01/23 00:01:11;;;;;;;13.70;2.60;;;6.40;99.90;;;;;;5028507;28;20505;-83
2024/01/23 00:03:36;;;;;;;13.65;2.88;;;6.40;99.90;;;;;;5016735;28;20037;-84
2024/01/23 00:06:02;;;;;;;11.45;2.38;;;6.30;99.90;;;;;;5009017;28;20485;-84
2024/01/23 00:08:28;;;;;;;17.27;3.00;;;6.30;99.90;;;;;;5033851;28;20056;-85
2024/01/23 00:10:54;;;;;;;17.27;2.80;;;7.20;99.90;;;;;;5014724;28;20045;-85
2024/01/23 00:13:19;;;;;;;17.85;3.30;;;6.80;99.90;;;;;;5014772;28;20030;-85
2024/01/23 00:15:45;;;;;;;17.23;3.15;;;6.20;99.90;;;;;;5013898;28;20040;-84
2024/01/23 00:18:11;;;;;;;18.00;2.85;;;6.80;99.90;;;;;;5025310;28;20412;-85
2024/01/23 00:20:36;;;;;;;17.00;3.22;;;6.20;99.90;;;;;;5019007;28;20037;-85
2024/01/23 00:23:02;;;;;;;18.63;3.03;;;6.20;99.90;;;;;;5003406;28;20041;-85
2024/01/23 00:25:28;;;;;;;20.85;3.95;;;6.20;99.90;;;;;;5008743;28;20519;-84
2024/01/23 00:27:53;;;;;;;15.25;2.80;;;6.90;99.90;;;;;;4999459;28;20034;-85
2024/01/23 00:30:19;;;;;;;14.85;2.78;;;6.60;99.90;;;;;;5036272;28;20470;-85
2024/01/23 00:32:44;;;;;;;16.45;2.95;;;6.40;99.90;;;;;;5033959;28;20041;-85
2024/01/23 00:35:10;;;;;;;14.50;2.90;;;6.20;99.90;;;;;;5016932;28;20043;-84
2024/01/23 00:37:36;;;;;;;18.42;2.95;;;6.80;99.90;;;;;;4997950;28;20124;-85
2024/01/23 00:40:03;;;;;;;15.88;2.90;;;6.70;99.90;;;;;;5021991;28;20044;-84
2024/01/23 00:42:29;;;;;;;18.13;3.80;;;6.20;99.90;;;;;;5021915;28;20063;-84
2024/01/23 00:44:54;;;;;;;17.33;3.15;;;6.20;99.90;;;;;;5016502;28;20037;-85
2024/01/23 00:47:20;;;;;;;19.15;3.05;;;7.00;99.90;;;;;;5016048;28;20049;-84
2024/01/23 00:49:46;;;;;;;21.83;3.20;;;6.70;99.90;;;;;;5015419;28;20453;-85
2024/01/23 00:52:12;;;;;;;15.45;2.80;;;6.90;99.90;;;;;;5030751;28;20033;-85
2024/01/23 00:54:37;;;;;;;15.68;2.60;;;7.00;99.90;;;;;;5028925;28;20033;-84
2024/01/23 00:57:05;;;;;;;14.75;2.85;;;6.30;99.90;;;;;;5032862;28;20452;-85
2024/01/23 00:59:31;;;;;;;16.33;3.30;;;6.30;99.90;;;;;;5030033;28;20464;-85
2024/01/23 01:01:57;;;;;;;22.17;3.65;;;6.30;99.90;;;;;;4999194;28;20409;-84
2024/01/23 01:04:23;;;;;;;17.48;4.10;;;6.40;99.90;;;;;;5015483;28;20060;-84
2024/01/23 01:06:48;;;;;;;13.77;2.90;;;6.30;99.90;;;;;;5015235;28;20040;-84
2024/01/23 01:09:14;;;;;;;16.38;3.22;;;6.30;99.90;;;;;;4995427;28;20048;-84
2024/01/23 01:11:40;;;;;;;14.80;3.03;;;6.50;99.90;;;;;;4995562;28;20056;-83
2024/01/23 01:14:05;;;;;;;14.00;3.13;;;6.60;99.90;;;;;;4994761;28;20064;-84
2024/01/23 01:16:31;;;;;;;16.83;3.20;;;6.60;99.90;;;;;;5015338;28;20055;-84
2024/01/23 01:18:58;;;;;;;17.90;2.72;;;6.90;99.90;;;;;;5032929;28;20050;-84
2024/01/23 01:21:24;;;;;;;16.70;3.33;;;6.70;99.90;;;;;;4998618;28;20171;-84
2024/01/23 01:23:49;;;;;;;12.73;2.72;;;6.10;99.90;;;;;;5012425;28;20045;-85
2024/01/23 01:26:15;;;;;;;15.93;2.88;;;6.00;99.90;;;;;;5014658;28;20516;-84
2024/01/23 01:28:41;;;;;;;20.05;3.92;;;6.00;99.90;;;;;;4998409;28;20551;-85
2024/01/23 01:31:07;;;;;;;20.95;3.47;;;6.20;99.90;;;;;;5014678;28;20034;-84
2024/01/23 01:33:32;;;;;;;23.55;4.45;;;6.70;99.90;;;;;;4998158;28;20037;-83
2024/01/23 01:35:58;;;;;;;19.77;3.55;;;6.10;99.90;;;;;;5014428;28;20494;-84
2024/01/23 01:38:24;;;;;;;18.58;2.88;;;6.00;99.90;;;;;;5035954;28;20043;-84
2024/01/23 01:40:50;;;;;;;15.50;3.10;;;6.60;99.90;;;;;;5032846;28;20585;-84
2024/01/23 01:43:30;;;;;;;15.13;2.40;;;6.30;99.90;;;;;;5009495;28;20094;-84
2024/01/23 01:46:10;;;;;;;22.42;3.75;;;6.10;99.90;;;;;;5036502;28;20505;-84
2024/01/23 01:48:37;;;;;;;19.95;3.90;;;5.90;99.90;;;;;;5015102;28;20033;-85
2024/01/23 01:51:03;;;;;;;15.27;3.22;;;6.40;99.90;;;;;;5020915;28;20038;-85
2024/01/23 01:53:28;;;;;;;19.45;4.10;;;5.90;99.90;;;;;;5015693;28;20033;-84
2024/01/23 01:55:54;;;;;;;18.02;3.67;;;5.90;99.90;;;;;;5018483;28;20064;-85
2024/01/23 01:58:23;;;;;;;21.73;3.55;;;6.60;99.90;;;;;;5010802;28;20497;-84
2024/01/23 02:00:50;;;;;;;18.20;3.28;;;6.70;99.90;;;;;;5015068;28;20045;-83
2024/01/23 02:03:17;;;;;;;16.65;3.70;;;6.40;99.90;;;;;;5025429;28;20068;-85
2024/01/23 02:05:43;;;;;;;28.85;3.92;;;6.60;99.90;;;;;;5013832;28;20052;-85
2024/01/23 02:08:09;;;;;;;19.25;3.33;;;5.90;99.90;;;;;;5014247;28;20041;-84
2024/01/23 02:10:34;;;;;;;18.48;3.65;;;5.80;99.90;;;;;;5014038;28;20060;-84
2024/01/23 02:13:00;;;;;;;18.40;4.10;;;5.90;99.90;;;;;;5029545;28;20038;-84
2024/01/23 02:15:26;;;;;;;24.13;3.47;;;7.00;99.90;;;;;;5027123;28;20041;-84
2024/01/23 02:17:51;;;;;;;22.23;3.78;;;6.40;99.90;;;;;;5008214;28;20548;-85
2024/01/23 02:20:17;;;;;;;20.73;3.20;;;5.80;99.90;;;;;;5014271;28;20559;-84
2024/01/23 02:22:42;;;;;;;22.48;4.25;;;5.80;99.90;;;;;;4996892;28;20045;-84
2024/01/23 02:25:08;;;;;;;31.23;3.47;;;5.80;99.90;;;;;;5014182;28;20471;-84
2024/01/23 02:27:34;;;;;;;15.27;3.10;;;6.30;99.90;;;;;;5013431;28;20040;-84
2024/01/23 02:29:59;;;;;;;23.30;4.50;;;5.70;99.90;;;;;;5015891;28;20037;-84
2024/01/23 02:32:25;;;;;;;20.20;4.13;;;5.90;99.90;;;;;;5009473;28;20493;-84
2024/01/23 02:34:50;;;;;;;22.15;4.20;;;5.80;99.90;;;;;;5023242;28;20044;-84
2024/01/23 02:37:16;;;;;;;18.25;3.08;;;5.80;99.90;;;;;;5000056;28;20029;-84
2024/01/23 02:39:42;;;;;;;22.33;3.60;;;6.10;99.90;;;;;;5039143;28;20520;-84
2024/01/23 02:42:09;;;;;;;20.05;3.70;;;6.70;99.90;;;;;;5013259;28;20033;-83
2024/01/23 02:44:34;;;;;;;19.33;3.40;;;6.70;99.90;;;;;;5007873;28;20095;-84
2024/01/23 02:47:00;;;;;;;20.20;3.80;;;6.00;99.90;;;;;;5008412;28;20034;-83
2024/01/23 02:49:25;;;;;;;21.38;3.58;;;6.10;99.90;;;;;;4987785;28;20122;-84
2024/01/23 02:51:52;;;;;;;23.30;4.80;;;6.10;99.90;;;;;;5010742;28;20042;-85
2024/01/23 02:54:18;;;;;;;19.17;3.72;;;6.90;99.90;;;;;;5020383;28;20037;-84
2024/01/23 02:56:44;;;;;;;22.30;4.50;;;6.20;99.90;;;;;;5012214;28;20520;-84
2024/01/23 02:59:10;;;;;;;22.42;3.97;;;7.00;99.90;;;;;;4999810;28;20037;-84
2024/01/23 03:01:35;;;;;;;17.25;3.78;;;6.50;99.90;;;;;;5013160;28;20410;-84
2024/01/23 03:04:01;;;;;;;20.15;3.35;;;7.00;99.90;;;;;;5006140;28;20401;-84
2024/01/23 03:06:27;;;;;;;23.90;5.65;;;6.60;99.90;;;;;;5019127;28;20052;-83
2024/01/23 03:08:52;;;;;;;18.77;4.18;;;6.20;99.90;;;;;;5007374;28;20049;-84
2024/01/23 03:11:18;;;;;;;27.05;4.25;;;7.30;99.90;;;;;;5008089;28;20037;-84
2024/01/23 03:13:44;;;;;;;18.92;4.07;;;6.30;99.90;;;;;;5014149;28;20057;-84
2024/01/23 03:16:09;;;;;;;23.98;4.28;;;6.80;99.90;;;;;;4996693;28;20037;-85
2024/01/23 03:18:35;;;;;;;17.98;3.33;;;6.30;99.90;;;;;;4988488;28;20479;-84
2024/01/23 03:21:01;;;;;;;26.15;3.72;;;6.50;99.90;;;;;;5023270;28;20080;-84
2024/01/23 03:23:26;;;;;;;24.63;3.67;;;6.20;99.90;;;;;;5000772;28;20042;-84
2024/01/23 03:25:52;;;;;;;17.98;3.67;;;6.20;99.90;;;;;;4992331;28;20037;-83
2024/01/23 03:28:18;;;;;;;22.27;4.00;;;6.20;99.90;;;;;;5016344;28;20065;-85
2024/01/23 03:30:43;;;;;;;29.58;4.10;;;6.70;99.90;;;;;;4998146;28;20037;-84
2024/01/23 03:33:09;;;;;;;20.25;3.40;;;7.10;99.90;;;;;;5015566;28;20041;-84
2024/01/23 03:35:35;;;;;;;25.40;4.30;;;6.30;99.90;;;;;;5020373;28;20029;-84
2024/01/23 03:38:00;;;;;;;22.65;3.83;;;6.30;99.90;;;;;;5018850;28;20041;-82
2024/01/23 03:40:26;;;;;;;19.15;4.18;;;7.20;99.90;;;;;;4992071;28;20038;-84
2024/01/23 03:42:51;;;;;;;23.00;4.38;;;7.10;99.90;;;;;;4993139;28;20037;-83
2024/01/23 03:45:17;;;;;;;20.08;3.22;;;6.20;99.90;;;;;;5019237;28;20033;-84
2024/01/23 03:47:43;;;;;;;21.38;3.40;;;6.30;99.90;;;;;;5039459;28;20125;-83
2024/01/23 03:50:08;;;;;;;27.83;3.78;;;6.90;99.90;;;;;;5004687;28;20056;-83
2024/01/23 03:52:36;;;;;;;21.75;3.67;;;6.80;99.90;;;;;;5018572;28;20056;-84
2024/01/23 03:55:02;;;;;;;24.33;4.18;;;6.40;99.90;;;;;;5012522;28;20041;-85
2024/01/23 03:57:28;;;;;;;23.75;3.15;;;6.40;99.90;;;;;;5018229;28;20037;-84
2024/01/23 03:59:54;;;;;;;20.67;3.75;;;7.10;99.90;;;;;;5027547;28;20419;-84
2024/01/23 04:02:22;;;;;;;21.33;4.03;;;6.40;99.90;;;;;;5011217;28;20037;-84
2024/01/23 04:04:48;;;;;;;25.45;3.83;;;7.10;99.90;;;;;;5012384;28;20040;-84
2024/01/23 04:07:14;;;;;;;21.50;3.38;;;6.40;99.90;;;;;;5036827;28;20037;-85
2024/01/23 04:09:39;;;;;;;17.17;4.07;;;6.40;99.90;;;;;;5007020;28;20385;-84
2024/01/23 04:12:05;;;;;;;22.27;3.83;;;6.50;99.90;;;;;;5014074;28;20037;-83
2024/01/23 04:14:31;;;;;;;26.33;4.57;;;6.50;99.90;;;;;;5023689;28;20072;-85
2024/01/23 04:16:56;;;;;;;29.23;5.13;;;7.20;99.90;;;;;;5018007;28;20036;-86
2024/01/23 04:19:22;;;;;;;22.00;4.22;;;7.00;99.90;;;;;;5017986;28;20043;-85
2024/01/23 04:21:47;;;;;;;23.60;4.15;;;6.80;99.90;;;;;;5032296;28;20413;-83
2024/01/23 04:24:13;;;;;;;26.92;4.43;;;7.30;99.90;;;;;;5017018;28;20140;-83
2024/01/23 04:26:46;;;;;;;28.42;5.03;;;7.00;99.90;;;;;;5014247;28;20048;-84
2024/01/23 04:29:12;;;;;;;25.85;5.20;;;6.80;99.90;;;;;;5020903;28;20087;-84
2024/01/23 04:31:37;;;;;;;21.75;4.50;;;6.70;99.90;;;;;;5024295;28;20404;-84
2024/01/23 04:34:03;;;;;;;23.88;4.50;;;7.40;99.90;;;;;;5011201;28;20065;-83
2024/01/23 04:36:29;;;;;;;26.60;4.68;;;7.50;99.90;;;;;;5024926;28;20055;-89
2024/01/23 04:38:54;;;;;;;26.80;5.38;;;7.20;99.90;;;;;;4990747;28;20034;-84
2024/01/23 04:41:22;;;;;;;23.00;4.47;;;7.60;99.90;;;;;;5035486;28;20096;-84
2024/01/23 04:43:48;;;;;;;23.83;4.50;;;6.70;99.90;;;;;;4997604;28;20037;-84
2024/01/23 04:46:13;;;;;;;20.83;3.72;;;7.10;99.90;;;;;;5024396;28;20033;-83
2024/01/23 04:48:39;;;;;;;26.75;4.63;;;6.70;99.90;;;;;;5017875;28;20053;-85
2024/01/23 04:51:05;;;;;;;31.55;4.80;;;6.70;99.90;;;;;;5037992;28;20535;-85
2024/01/23 04:53:32;;;;;;;27.10;4.63;;;6.60;99.90;;;;;;5000659;28;20036;-84
2024/01/23 04:55:59;;;;;;;22.70;5.18;;;7.10;99.90;;;;;;5027576;28;20033;-85
2024/01/23 04:58:24;;;;;;;23.60;3.88;;;7.20;99.90;;;;;;5038423;28;20499;-84
2024/01/23 05:00:50;;;;;;;31.10;5.50;;;7.50;99.90;;;;;;5037358;28;20072;-84
2024/01/23 05:03:16;;;;;;;28.92;4.47;;;7.50;99.90;;;;;;5035550;28;20044;-85
2024/01/23 05:05:41;;;;;;;30.38;5.63;;;6.70;99.90;;;;;;5022336;28;20033;-84
2024/01/23 05:08:08;;;;;;;27.75;4.63;;;7.30;99.90;;;;;;5006069;28;20046;-84
2024/01/23 05:10:33;;;;;;;24.38;4.47;;;7.10;99.90;;;;;;5001443;28;20038;-85
2024/01/23 05:12:59;;;;;;;28.35;4.90;;;7.40;99.90;;;;;;5034755;28;20033;-85
2024/01/23 05:15:24;;;;;;;24.83;4.95;;;6.70;99.90;;;;;;5011682;28;20121;-85
2024/01/23 05:17:50;;;;;;;24.45;4.63;;;6.70;99.90;;;;;;5020705;28;20045;-84
2024/01/23 05:20:16;;;;;;;30.58;5.53;;;6.60;99.90;;;;;;5016362;28;20053;-84
2024/01/23 05:22:41;;;;;;;18.40;3.35;;;7.10;99.90;;;;;;5041589;28;20083;-86
2024/01/23 05:25:07;;;;;;;28.88;4.30;;;7.40;99.90;;;;;;5016786;28;20033;-85
2024/01/23 05:27:33;;;;;;;29.00;4.97;;;6.70;99.90;;;;;;5035229;28;20033;-85
2024/01/23 05:29:58;;;;;;;29.58;4.43;;;6.70;99.90;;;;;;4996170;28;20044;-85
2024/01/23 05:32:24;;;;;;;25.35;5.00;;;7.50;99.90;;;;;;5037212;28;20029;-85
2024/01/23 05:34:50;;;;;;;32.10;4.63;;;7.30;99.90;;;;;;5021781;28;20079;-85
2024/01/23 05:37:15;;;;;;;24.98;4.85;;;7.50;99.90;;;;;;5027466;28;20036;-85
2024/01/23 05:39:41;;;;;;;22.40;4.10;;;6.70;99.90;;;;;;5019875;28;20034;-85
2024/01/23 05:42:07;;;;;;;25.38;4.35;;;7.40;99.90;;;;;;5032456;28;20041;-85
2024/01/23 05:44:34;;;;;;;30.83;4.82;;;7.10;99.90;;;;;;5011979;28;20034;-85
2024/01/23 05:47:00;;;;;;;27.77;4.78;;;7.10;99.90;;;;;;5005855;28;20033;-85
2024/01/23 05:49:26;;;;;;;26.02;4.82;;;7.30;99.90;;;;;;4992502;28;20041;-85
2024/01/23 05:51:51;;;;;;;32.38;5.63;;;6.40;99.90;;;;;;5033998;28;20036;-85
2024/01/23 05:54:17;;;;;;;23.65;3.95;;;6.60;99.90;;;;;;5009968;28;20037;-85
2024/01/23 05:56:42;;;;;;;27.80;5.03;;;6.80;99.90;;;;;;5002116;28;20037;-85
2024/01/23 05:59:08;;;;;;;29.98;5.30;;;7.10;99.90;;;;;;5029976;28;20097;-85
2024/01/23 06:01:34;;;;;;;24.00;4.45;;;6.20;99.90;;;;;;5016759;28;20124;-85
2024/01/23 06:04:00;;;;;;;31.42;4.97;;;6.80;99.90;;;;;;5041856;28;20037;-87
2024/01/23 06:06:26;;;;;;;33.03;4.88;;;6.10;99.90;;;;;;5004964;28;20044;-85
2024/01/23 06:08:52;;;;;;;27.95;5.13;;;6.40;99.90;;;;;;5016906;28;20151;-85
2024/01/23 06:11:17;;;;;;;26.27;5.10;;;6.00;99.90;;;;;;5014404;28;20493;-85
2024/01/23 06:13:43;;;;;;;28.30;4.82;;;6.00;99.90;;;;;;5014096;28;20037;-86
2024/01/23 06:16:10;;;;;;;29.92;5.43;;;6.00;99.90;;;;;;5014146;28;20056;-85
2024/01/23 06:18:36;;;;;;;23.92;5.15;;;5.90;99.90;;;;;;5032180;28;20106;-85
2024/01/23 06:21:02;;;;;;;30.75;5.10;;;5.90;99.90;;;;;;5006006;28;20045;-85
2024/01/23 06:23:28;;;;;;;34.53;5.63;;;5.90;99.90;;;;;;5031913;28;20115;-85
2024/01/23 06:25:54;;;;;;;32.03;5.00;;;6.80;99.90;;;;;;5031703;28;20033;-85
2024/01/23 06:28:19;;;;;;;27.17;5.15;;;5.90;99.90;;;;;;5031901;28;20089;-85
2024/01/23 06:30:45;;;;;;;26.33;5.15;;;6.40;99.90;;;;;;4993254;28;20043;-85
2024/01/23 06:33:12;;;;;;;28.40;4.40;;;5.80;99.90;;;;;;5006314;28;20425;-85
2024/01/23 06:35:38;;;;;;;31.20;5.00;;;6.30;99.90;;;;;;5013971;28;20401;-85
2024/01/23 06:38:03;;;;;;;26.20;5.00;;;6.80;99.90;;;;;;5031504;28;20087;-85
2024/01/23 06:40:29;;;;;;;31.65;5.57;;;5.80;99.90;;;;;;5014113;28;20091;-85
2024/01/23 06:42:54;;;;;;;28.70;5.30;;;6.30;99.90;;;;;;5009713;28;20152;-85
2024/01/23 06:45:20;;;;;;;30.55;4.82;;;6.60;99.90;;;;;;5031517;28;20067;-85
2024/01/23 06:47:46;;;;;;;27.27;5.55;;;6.00;99.90;;;;;;5013236;28;20447;-85
2024/01/23 06:50:12;;;;;;;33.25;5.22;;;6.40;99.90;;;;;;4978255;28;20042;-85
2024/01/23 06:52:37;;;;;;;37.70;5.85;;;5.70;99.90;;;;;;5003570;28;20085;-85
2024/01/23 06:55:04;;;;;;;36.92;6.15;;;5.70;99.90;;;;;;5010878;28;20037;-85
2024/01/23 06:57:29;;;;;;;34.85;6.70;;;5.70;99.90;;;;;;5019431;28;20036;-85
2024/01/23 06:59:55;;;;;;;34.78;6.25;;;6.70;99.90;;;;;;4996081;28;20389;-85
2024/01/23 07:02:21;;;;;;;37.08;5.97;;;5.60;99.90;;;;;;4992284;28;20110;-85
2024/01/23 07:04:47;;;;;;;31.27;5.50;;;5.60;99.90;;;;;;5024537;28;20033;-85
2024/01/23 07:07:12;;;;;;;29.83;5.32;;;5.60;99.90;;;;;;5006706;28;20632;-84
2024/01/23 07:09:38;;;;;;;30.50;5.35;;;6.30;99.90;;;;;;5013112;28;20501;-85
2024/01/23 07:12:04;;;;;;;31.05;6.43;;;6.30;99.90;;;;;;4994557;28;20716;-85
2024/01/23 07:14:30;;;;;;;31.38;5.25;;;5.60;99.90;;;;;;5014134;28;20029;-85
2024/01/23 07:16:55;;;;;;;32.72;5.13;;;5.60;99.90;;;;;;5013564;28;20029;-84
2024/01/23 07:19:21;;;;;;;27.30;5.20;;;5.50;99.90;;;;;;5013363;28;20038;-85
2024/01/23 07:21:47;;;;;;;31.73;6.03;;;6.60;99.90;;;;;;5030335;28;20030;-85
2024/01/23 07:24:13;;;;;;;32.17;5.05;;;6.40;99.90;;;;;;4996578;28;20057;-85
2024/01/23 07:26:39;;;;;;;28.67;5.15;;;6.00;99.90;;;;;;5006425;28;20516;-85
2024/01/23 07:29:04;;;;;;;29.42;4.28;;;5.50;99.90;;;;;;5012156;28;20462;-85
2024/01/23 07:31:30;;;;;;;28.65;4.72;;;5.40;99.90;;;;;;5003589;28;20084;-84
2024/01/23 07:33:56;;;;;;;31.50;4.80;;;6.20;99.90;;;;;;5018526;28;20099;-85
2024/01/23 07:36:22;;;;;;;35.25;5.35;;;5.90;99.90;;;;;;4996609;28;20030;-85
2024/01/23 07:38:47;;;;;;;33.90;5.22;;;5.40;99.90;;;;;;5020668;28;20041;-84
2024/01/23 07:41:13;;;;;;;36.78;5.97;;;5.40;99.90;;;;;;4991439;28;20053;-85
2024/01/23 07:43:38;;;;;;;33.95;5.97;;;5.40;99.90;;;;;;5024980;28;20045;-85
2024/01/23 07:46:04;;;;;;;34.40;5.43;;;6.10;99.90;;;;;;4992978;28;20053;-85
2024/01/23 07:48:30;;;;;;;30.98;5.38;;;5.90;99.90;;;;;;5030862;28;20041;-85
2024/01/23 07:50:55;;;;;;;30.17;5.38;;;6.20;99.90;;;;;;5030578;28;20560;-85
2024/01/23 07:53:21;;;;;;;41.67;6.32;;;6.20;99.90;;;;;;5013205;28;20117;-85
2024/01/23 07:55:47;;;;;;;30.48;4.43;;;5.40;99.90;;;;;;5012730;28;20033;-85
2024/01/23 07:58:13;;;;;;;29.25;5.50;;;5.40;99.90;;;;;;5006441;28;20064;-84
2024/01/23 08:00:41;;;;;;;35.85;5.13;;;6.10;99.90;;;;;;5008965;28;20037;-85
2024/01/23 08:03:06;;;;;;;35.10;5.75;;;5.40;99.90;;;;;;5015840;28;20037;-86
2024/01/23 08:05:32;;;;;;;37.53;5.28;;;5.50;99.90;;;;;;4993232;28;20095;-86
2024/01/23 08:07:58;;;;;;;25.88;5.55;;;6.20;99.90;;;;;;5028848;28;20451;-84
2024/01/23 08:10:24;;;;;;;29.27;5.60;;;5.40;99.90;;;;;;5010368;28;20033;-85
2024/01/23 08:12:50;;;;;;;34.35;5.20;;;6.30;99.90;;;;;;5032958;28;20464;-85
2024/01/23 08:15:19;;;;;;;39.70;5.50;;;5.80;99.90;;;;;;5005674;28;20038;-86
2024/01/23 08:17:45;;;;;;;41.10;6.05;;;5.40;99.90;;;;;;5013987;28;20121;-85
2024/01/23 08:20:11;;;;;;;37.08;5.68;;;6.00;99.90;;;;;;5031450;28;20121;-86
2024/01/23 08:22:37;;;;;;;33.72;5.45;;;5.40;99.90;;;;;;5010618;28;20049;-85
2024/01/23 08:25:03;;;;;;;28.63;5.47;;;5.40;99.90;;;;;;5022749;28;20416;-86
2024/01/23 08:27:28;;;;;;;32.78;5.50;;;5.40;99.90;;;;;;5002993;28;20049;-86
2024/01/23 08:29:54;;;;;;;38.55;6.45;;;5.40;99.90;;;;;;5000928;28;20044;-85
2024/01/23 08:32:19;;;;;;;27.75;5.70;;;5.50;99.90;;;;;;5020899;28;20030;-86
2024/01/23 08:34:45;;;;;;;32.50;5.70;;;5.50;99.90;;;;;;4996720;28;20033;-85
2024/01/23 08:37:11;;;;;;;34.67;5.25;;;5.50;99.90;;;;;;5033145;28;20025;-85
2024/01/23 08:39:36;;;;;;;31.80;5.88;;;6.40;99.90;;;;;;4996496;28;20143;-86
2024/01/23 08:42:03;;;;;;;34.42;5.25;;;5.90;99.90;;;;;;5014561;28;20041;-85
2024/01/23 08:44:29;;;;;;;31.85;5.75;;;5.60;99.90;;;;;;5022226;28;20428;-85
2024/01/23 08:46:54;;;;;;;32.25;5.07;;;5.60;99.90;;;;;;4997189;28;20044;-85
2024/01/23 08:49:20;;;;;;;31.17;5.07;;;5.60;99.90;;;;;;4986397;28;20041;-85
2024/01/23 08:51:46;;;;;;;30.02;5.60;;;6.60;99.90;;;;;;5008626;28;20029;-85
2024/01/23 08:54:13;;;;;;;29.02;5.63;;;5.60;99.90;;;;;;5015231;28;20378;-85
2024/01/23 08:56:39;;;;;;;29.38;4.80;;;5.60;99.90;;;;;;5035009;28;20040;-85
2024/01/23 08:59:05;;;;;;;28.67;5.18;;;6.40;99.90;;;;;;5013556;28;20037;-85
2024/01/23 09:01:30;;;;;;;37.50;5.05;;;5.70;99.90;;;;;;5000441;28;20379;-85
2024/01/23 09:03:56;;;;;;;31.45;5.00;;;5.80;99.90;;;;;;5015439;28;20120;-85
2024/01/23 09:06:22;;;;;;;35.83;7.15;;;5.90;99.90;;;;;;4995502;28;20045;-85
2024/01/23 09:08:47;;;;;;;36.78;5.38;;;6.80;99.90;;;;;;5029886;28;20040;-85
2024/01/23 09:11:13;;;;;;;31.08;5.35;;;6.90;99.90;;;;;;5033206;28;20034;-86
2024/01/23 09:13:39;;;;;;;28.85;4.85;;;6.40;99.90;;;;;;4993523;28;20517;-86
2024/01/23 09:16:05;;;;;;;26.88;5.45;;;6.50;99.90;;;;;;5014866;28;20497;-85
2024/01/23 09:18:31;;;;;;;34.42;6.32;;;5.80;99.90;;;;;;5034982;28;20044;-85
2024/01/23 09:20:58;;;;;;;31.60;5.65;;;5.90;99.90;;;;;;5036186;28;20044;-85
2024/01/23 09:23:24;;;;;;;33.88;5.10;;;6.70;99.90;;;;;;5032827;28;20042;-85
2024/01/23 09:25:50;;;;;;;26.85;4.55;;;6.10;99.90;;;;;;5002711;28;20045;-85
2024/01/23 09:28:16;;;;;;;31.92;5.53;;;6.30;99.90;;;;;;5017094;28;20040;-86
2024/01/23 09:30:43;;;;;;;29.77;4.95;;;6.90;99.90;;;;;;5014846;28;20037;-85
2024/01/23 09:33:09;;;;;;;29.25;5.20;;;7.10;99.90;;;;;;5006847;28;20113;-86
2024/01/23 09:35:35;;;;;;;31.75;5.90;;;6.60;99.90;;;;;;5027746;28;20037;-86
2024/01/23 09:38:01;;;;;;;29.40;5.68;;;6.70;99.90;;;;;;5017916;28;20037;-86
2024/01/23 09:40:26;;;;;;;24.25;5.18;;;6.20;99.90;;;;;;5016348;28;20033;-86
2024/01/23 09:42:55;;;;;;;33.70;6.15;;;6.90;99.90;;;;;;5017077;28;20037;-85
2024/01/23 09:45:28;;;;;;;33.53;5.10;;;6.50;99.90;;;;;;5014911;28;20041;-86
2024/01/23 09:47:54;;;;;;;33.55;5.35;;;6.80;99.90;;;;;;5030362;28;20033;-86
2024/01/23 09:50:25;;;;;;;23.45;5.95;;;6.40;99.90;;;;;;5002572;28;20045;-86
2024/01/23 09:52:50;;;;;;;33.45;4.90;;;6.50;99.90;;;;;;5012857;28;20076;-87
2024/01/23 09:55:17;;;;;;;34.35;6.57;;;6.90;99.90;;;;;;5004874;28;20436;-86
2024/01/23 09:57:43;;;;;;;28.30;5.35;;;6.60;99.90;;;;;;5014090;28;20044;-86
2024/01/23 10:00:11;;;;;;;35.33;5.90;;;6.90;99.90;;;;;;5014261;28;20087;-86
2024/01/23 10:02:39;;;;;;;43.25;6.32;;;6.50;99.90;;;;;;5007576;28;20034;-87
2024/01/23 10:05:08;;;;;;;26.80;4.95;;;6.50;99.90;;;;;;5001474;28;20048;-87
2024/01/23 10:07:35;;;;;;;31.23;5.10;;;6.50;99.90;;;;;;4994084;28;20090;-87
2024/01/23 10:10:05;;;;;;;25.85;4.65;;;7.20;99.90;;;;;;5004037;28;20111;-86
2024/01/23 10:12:32;;;;;;;33.83;6.70;;;6.90;99.90;;;;;;5014536;28;20037;-87
2024/01/23 10:15:00;;;;;;;38.50;5.05;;;6.70;99.90;;;;;;5016414;28;20433;-87
2024/01/23 10:17:26;;;;;;;31.15;5.18;;;7.40;99.90;;;;;;5013740;28;20033;-85
2024/01/23 10:19:52;;;;;;;29.02;6.05;;;6.90;99.90;;;;;;5015355;28;20040;-85
2024/01/23 10:22:18;;;;;;;24.50;5.22;;;7.00;99.90;;;;;;5016696;28;20153;-85
2024/01/23 10:24:44;;;;;;;31.42;6.25;;;7.70;99.90;;;;;;5017917;28;20037;-84
2024/01/23 10:27:10;;;;;;;25.40;4.78;;;7.60;99.90;;;;;;5014152;28;20052;-84
2024/01/23 10:29:35;;;;;;;36.95;6.07;;;7.70;99.90;;;;;;4998580;28;20057;-85
2024/01/23 10:32:03;;;;;;;33.47;4.60;;;7.20;99.90;;;;;;4989616;28;20038;-85
2024/01/23 10:34:29;;;;;;;28.80;4.78;;;7.10;99.90;;;;;;5032882;28;20037;-86
2024/01/23 10:36:57;;;;;;;30.63;5.18;;;7.60;99.90;;;;;;4996792;28;20037;-85
2024/01/23 10:39:25;;;;;;;37.00;5.95;;;7.50;99.90;;;;;;5013752;28;20040;-86
2024/01/23 10:41:52;;;;;;;21.95;4.28;;;7.20;99.90;;;;;;5001670;28;20046;-85
2024/01/23 10:44:23;;;;;;;33.65;5.40;;;7.70;99.90;;;;;;5001720;28;20040;-86
2024/01/23 10:46:50;;;;;;;29.63;4.80;;;7.90;99.90;;;;;;5031609;28;20080;-86
2024/01/23 10:49:16;;;;;;;39.97;6.15;;;7.60;99.90;;;;;;5014975;28;20045;-86
2024/01/23 10:51:47;;;;;;;33.97;4.97;;;8.00;99.90;;;;;;5013372;28;20040;-84
2024/01/23 10:54:26;;;;;;;34.17;5.45;;;7.50;99.90;;;;;;4999814;28;20069;-84
2024/01/23 10:56:55;;;;;;;31.10;5.75;;;7.80;99.90;;;;;;5016983;28;20043;-84
2024/01/23 10:59:27;;;;;;;31.08;5.28;;;7.50;99.90;;;;;;5002303;28;20357;-85
2024/01/23 11:02:05;;;;;;;30.42;5.28;;;7.90;99.90;;;;;;5002450;28;20040;-85
2024/01/23 11:04:32;;;;;;;29.10;6.38;;;8.10;99.90;;;;;;5012377;28;20041;-85
2024/01/23 11:07:06;;;;;;;31.58;4.75;;;7.80;99.90;;;;;;4996105;28;20033;-84
2024/01/23 11:09:54;;;;;;;29.10;5.13;;;8.10;99.90;;;;;;5005439;28;20029;-85
2024/01/23 11:12:41;;;;;;;27.88;4.65;;;7.90;99.90;;;;;;4995994;28;20086;-85
2024/01/23 11:15:15;;;;;;;24.05;4.65;;;7.80;99.90;;;;;;5010207;28;20056;-84
2024/01/23 11:17:42;;;;;;;28.65;4.82;;;8.30;99.90;;;;;;5003421;28;20022;-84
2024/01/23 11:20:15;;;;;;;27.77;5.40;;;8.50;99.90;;;;;;5000878;28;20049;-84
2024/01/23 11:22:41;;;;;;;27.60;4.68;;;7.90;99.90;;;;;;5038074;28;20029;-85
2024/01/23 11:25:10;;;;;;;23.75;5.43;;;7.80;99.90;;;;;;4999581;28;20084;-85
2024/01/23 11:27:39;;;;;;;28.90;5.18;;;8.00;99.90;;;;;;5013193;28;20038;-84
2024/01/23 11:30:13;;;;;;;16.10;3.50;;;8.40;99.90;;;;;;5011771;28;20053;-84
2024/01/23 11:32:40;;;;;;;23.33;4.60;;;7.90;99.90;;;;;;4997907;28;20456;-84
2024/01/23 11:35:13;;;;;;;29.08;4.60;;;8.30;99.90;;;;;;5014793;28;20034;-84
2024/01/23 11:37:49;;;;;;;19.25;3.95;;;8.00;99.90;;;;;;5031868;28;20535;-84
2024/01/23 11:40:27;;;;;;;24.23;3.83;;;8.00;99.90;;;;;;4997216;28;20065;-84
2024/01/23 11:42:54;;;;;;;21.48;4.50;;;8.00;99.90;;;;;;5028027;28;20049;-85
2024/01/23 11:45:25;;;;;;;30.55;4.75;;;8.50;99.90;;;;;;5036826;28;20033;-84
2024/01/23 11:47:56;;;;;;;23.98;4.22;;;7.90;99.90;;;;;;4997852;28;20489;-84
2024/01/23 11:50:22;;;;;;;24.33;4.72;;;7.80;99.90;;;;;;5002188;28;20041;-87
2024/01/23 11:52:51;;;;;;;25.58;4.32;;;7.70;99.90;;;;;;5019657;28;20033;-85
2024/01/23 11:55:19;;;;;;;23.33;4.53;;;8.00;99.90;;;;;;4990531;28;20057;-83
2024/01/23 11:57:46;;;;;;;23.88;4.25;;;7.80;99.90;;;;;;5038903;28;20036;-85
2024/01/23 12:00:13;;;;;;;22.00;4.43;;;8.10;99.90;;;;;;5022475;28;21246;-84
2024/01/23 12:02:39;;;;;;;25.42;4.85;;;7.70;99.90;;;;;;5025589;28;20033;-84
2024/01/23 12:05:05;;;;;;;33.70;7.03;;;7.80;99.90;;;;;;4996096;28;20049;-85
2024/01/23 12:07:31;;;;;;;22.63;4.00;;;7.60;99.90;;;;;;5019067;28;20033;-84
2024/01/23 12:09:56;;;;;;;24.05;5.45;;;8.10;99.90;;;;;;5019345;28;20043;-84
2024/01/23 12:12:22;;;;;;;29.70;4.55;;;7.70;99.90;;;;;;4998631;28;20048;-84
2024/01/23 12:14:47;;;;;;;24.63;4.90;;;7.70;99.90;;;;;;5035870;28;20037;-85
2024/01/23 12:17:13;;;;;;;21.58;3.95;;;7.80;99.90;;;;;;5015530;28;20033;-85
2024/01/23 12:19:48;;;;;;;24.63;5.38;;;7.90;99.90;;;;;;5000098;28;20164;-84
2024/01/23 12:22:15;;;;;;;30.60;4.57;;;8.40;99.90;;;;;;5016418;28;20120;-84
2024/01/23 12:24:42;;;;;;;27.45;4.22;;;8.10;99.90;;;;;;5035120;28;20112;-83
2024/01/23 12:27:08;;;;;;;22.02;3.83;;;7.90;99.90;;;;;;5015892;28;20133;-85
2024/01/23 12:29:35;;;;;;;29.25;4.03;;;8.40;99.90;;;;;;4999959;28;20568;-85
2024/01/23 12:32:01;;;;;;;34.08;4.65;;;8.10;99.90;;;;;;5019176;28;20029;-85
2024/01/23 12:34:29;;;;;;;22.63;4.55;;;8.10;99.90;;;;;;5016121;28;20095;-85
2024/01/23 12:37:02;;;;;;;27.08;4.93;;;8.10;99.90;;;;;;5000405;28;20036;-84
2024/01/23 12:39:28;;;;;;;26.73;4.50;;;8.30;99.90;;;;;;4992027;28;20041;-84
2024/01/23 12:41:54;;;;;;;30.38;4.25;;;8.30;99.90;;;;;;5003749;28;20095;-84
2024/01/23 12:44:20;;;;;;;24.63;5.10;;;8.30;99.90;;;;;;5021699;28;20041;-84